Terminal Aerodrome Forecast
Issued by NWS Cleveland, OH

Home | Current Version | Previous Version | Graphics & Text | Print | Product List | Glossary On
Versions: 1 2 3 4 5 6 7 8 9 10 11 12 13 14 15 16 17 18 19 20 21
877
FTUS41 KCLE 230916 AAA
TAFMFD
TAF AMD
KMFD 230916Z 2309/2406 26005KT 6SM BR SCT025 BKN070
      TEMPO 2309/2312 5SM BR BKN030
     FM231200 26004KT 5SM BR BKN015 BKN028
     FM231500 27005KT P6SM SCT016 BKN025
      TEMPO 2315/2317 SCT025 BKN035
     FM231700 28007KT P6SM SCT025 BKN040 PROB30 2318/2323 4SM -TSRA
      BKN030CB
     FM232300 28007KT P6SM FEW030 SCT100=

USA.gov is the U.S. government's official web portal to all federal, state and local government web resources and services.